Latest Weather Observations for Fingal

IDT60801

Issued at 9:35 pm EST Wednesday 23 July 2014 (issued every 30 minutes, with the page automatically refreshed every 10 minutes)

About weather observations | Map of weather stations | Latest weather observations for TAS | Other Formats
Station Details ID: 092012 Name: FINGAL (LEGGE STREET) Lat: -41.64 Lon: 147.97 Height: 237.0 m
Data from the previous 72 hours. | See also: Recent months at Fingal
Date/Time
EST
Temp
°C
App
Temp
°C
Dew
Point
Rel
Hum
%
Delta-T
°C
Wind Press
QNH
hPa
Press
MSL
hPa
Rain
since 9 am
mm
Dir
 
Spd
km/h
Gust
km/h
Spd
kts
Gust
kts
23/09:30pm 0.2 -2.0 -1.5 88 0.6 ESE 0 0 0 0 - - 0.0
23/09:00pm 0.6 -1.6 -1.3 87 0.7 ESE 0 0 0 0 - - 0.0
23/08:30pm 1.4 -0.7 -0.5 87 0.7 CALM 0 0 0 0 - - 0.0
23/08:00pm 2.4 0.5 0.3 86 0.8 CALM 0 0 0 0 - - 0.0
23/07:30pm 3.2 1.3 0.6 83 1.0 SE 0 0 0 0 - - 0.0
23/07:00pm 4.3 1.8 1.5 82 1.1 ESE 4 7 2 4 - - 0.0
23/06:30pm 4.3 0.9 1.7 83 1.0 SE 9 11 5 6 - - 0.0
23/06:00pm 4.8 1.7 1.1 77 1.5 E 7 9 4 5 - - 0.0
23/05:30pm 5.5 3.3 1.2 74 1.7 ESE 2 7 1 4 - - 0.0
23/05:00pm 8.4 6.7 2.0 64 2.7 CALM 0 0 0 0 - - 0.0
23/04:30pm 11.0 8.0 2.1 54 3.8 NE 7 11 4 6 - - 0.0
23/04:00pm 10.6 7.7 2.4 57 3.6 NE 7 11 4 6 - - 0.0
23/03:30pm 11.4 7.8 2.7 55 3.8 NNE 11 17 6 9 - - 0.0
23/03:00pm 12.3 8.1 1.9 49 4.5 NE 13 19 7 10 - - 0.0
23/02:30pm 12.8 8.7 2.4 49 4.6 NNE 13 17 7 9 - - 0.0
23/02:00pm 12.8 9.5 2.4 49 4.6 NE 9 15 5 8 - - 0.0
23/01:30pm 12.1 9.3 3.1 54 4.0 NNE 7 11 4 6 - - 0.0
23/01:00pm 11.5 9.2 4.7 63 3.1 NNE 6 9 3 5 - - 0.0
23/12:30pm 9.3 6.6 3.7 68 2.5 N 7 11 4 6 - - 0.0
23/12:00pm 7.9 5.2 3.9 76 1.8 NNE 7 9 4 5 - - 0.0
23/11:30am 5.4 2.8 3.1 85 1.0 N 6 9 3 5 - - 0.0
23/11:00am 3.0 0.0 1.8 92 0.5 N 7 9 4 5 - - 0.0
23/10:30am 0.9 -1.5 -0.1 93 0.4 ENE 2 6 1 3 - - 0.0
23/10:00am -0.5 -2.7 -1.5 93 0.3 CALM 0 0 0 0 - - 0.0
23/09:30am -1.3 -3.6 -2.3 93 0.3 CALM 0 0 0 0 - - 0.0
23/09:00am -2.2 -4.6 -3.2 93 0.2 CALM 0 0 0 0 - - 0.0
23/08:30am -2.7 -5.2 -3.7 93 0.2 CALM 0 0 0 0 - - 0.0
23/08:00am -3.0 -5.5 -4.1 92 0.2 CALM 0 0 0 0 - - 0.0
23/07:30am -3.2 -5.7 -4.3 92 0.2 CALM 0 0 0 0 - - 0.0
23/07:00am -3.1 -5.6 -4.2 92 0.2 CALM 0 0 0 0 - - 0.0
23/06:30am -3.0 -5.5 -4.1 92 0.2 CALM 0 0 0 0 - - 0.0
23/06:00am -2.8 -5.3 -3.9 92 0.2 CALM 0 0 0 0 - - 0.0
23/05:30am -2.8 -5.7 -3.9 92 0.2 SSE 2 7 1 4 - - 0.0
23/05:00am -2.4 -5.2 -3.5 92 0.3 SE 2 6 1 3 - - 0.0
23/04:30am -2.2 -4.6 -3.3 92 0.3 CALM 0 0 0 0 - - 0.0
23/04:00am -2.2 -4.6 -3.3 92 0.3 CALM 0 0 0 0 - - 0.0
23/03:30am -2.4 -5.2 -3.5 92 0.3 SE 2 6 1 3 - - 0.0
23/03:00am -2.3 -4.7 -3.4 92 0.3 CALM 0 0 0 0 - - 0.0
23/02:30am -2.5 -5.0 -3.6 92 0.3 SE 0 0 0 0 - - 0.0
23/02:00am -2.4 -6.0 -3.5 92 0.3 SE 6 9 3 5 - - 0.0
23/01:30am -1.8 -4.2 -2.9 92 0.3 CALM 0 0 0 0 - - 0.0
23/01:00am -2.0 -4.4 -3.3 91 0.3 CALM 0 0 0 0 - - 0.0
23/12:30am -1.6 -4.0 -2.9 91 0.4 CALM 0 0 0 0 - - 0.0
23/12:00am -1.0 -3.3 -2.3 91 0.4 W 0 0 0 0 - - 0.0
 
Date/Time
EST
Temp
°C
App
Temp
°C
Dew
Point
Rel
Hum
%
Delta-T
°C
Wind Press
QNH
hPa
Press
MSL
hPa
Rain
since 9 am
mm
Dir
 
Spd
km/h
Gust
km/h
Spd
kts
Gust
kts
22/11:30pm -0.9 -4.3 -2.3 90 0.4 WSW 6 7 3 4 - - 0.0
22/11:00pm -0.9 -3.2 -2.3 90 0.4 CALM 0 0 0 0 - - 0.0
22/10:30pm -0.6 -2.9 -2.2 89 0.5 CALM 0 0 0 0 - - 0.0
22/10:00pm 0.1 -3.4 -1.3 90 0.5 SSE 7 9 4 5 - - 0.0
22/09:30pm 0.2 -2.0 -1.5 88 0.6 CALM 0 6 0 3 - - 0.0
22/09:00pm 0.9 -2.4 -0.9 88 0.6 SE 6 7 3 4 - - 0.0
22/08:30pm 1.6 -0.8 -0.5 86 0.8 SE 2 6 1 3 - - 0.0
22/08:00pm 3.0 0.0 0.9 86 0.8 SE 6 7 3 4 - - 0.0
22/07:30pm 3.2 0.2 0.9 85 0.9 SSW 6 7 3 4 - - 0.0
22/07:00pm 3.2 0.5 0.3 81 1.1 SSW 4 9 2 5 - - 0.0
22/06:30pm 5.2 2.3 2.4 82 1.2 SW 7 11 4 6 - - 0.0
22/06:00pm 5.4 2.5 2.4 81 1.2 SW 7 9 4 5 - - 0.0
22/05:30pm 6.5 3.2 2.4 75 1.7 SW 9 11 5 6 - - 0.0
22/05:00pm 7.8 4.7 1.6 65 2.6 W 7 9 4 5 - - 0.0
22/04:30pm 9.8 7.0 1.9 58 3.4 WNW 6 9 3 5 - - 0.0
22/04:00pm 11.7 8.2 1.1 48 4.5 W 9 15 5 8 - - 0.0
22/03:30pm 11.8 7.9 0.9 47 4.6 W 11 19 6 10 - - 0.0
22/03:00pm 11.9 7.6 0.7 46 4.7 W 13 22 7 12 - - 0.0
22/02:30pm 11.8 7.4 0.6 46 4.7 WSW 13 20 7 11 - - 0.0
22/02:00pm 11.5 7.8 2.5 54 3.9 SW 11 15 6 8 - - 0.0
22/01:30pm 11.3 7.9 4.1 61 3.3 WNW 11 15 6 8 - - 0.0
22/01:00pm 10.1 6.3 4.0 66 2.7 WNW 13 19 7 10 - - 0.0
22/12:30pm 8.7 6.3 5.3 79 1.5 WNW 7 11 4 6 - - 0.0
22/12:00pm 6.3 3.8 4.0 85 1.0 NW 6 9 3 5 - - 0.0
22/11:30am 4.0 2.5 3.1 94 0.4 CALM 0 0 0 0 - - 0.0
22/11:00am 1.4 -1.6 0.5 94 0.3 N 6 9 3 5 - - 0.0
22/10:30am 0.0 -3.3 -1.0 93 0.4 NNE 6 7 3 4 - - 0.0
22/10:00am -0.8 -3.0 -1.8 93 0.3 CALM 0 0 0 0 - - 0.0
22/09:30am -1.7 -4.0 -2.7 93 0.3 CALM 0 6 0 3 - - 0.0
22/09:00am -2.1 -4.5 -3.1 93 0.2 CALM 0 0 0 0 - - 0.4
22/08:30am -2.6 -5.1 -3.6 93 0.2 CALM 0 0 0 0 - - 0.4
22/08:00am -2.9 -5.4 -3.9 93 0.2 CALM 0 0 0 0 - - 0.4
22/07:30am -2.9 -5.4 -3.9 93 0.2 CALM 0 0 0 0 - - 0.4
22/07:00am -2.6 -5.1 -3.6 93 0.2 CALM 0 0 0 0 - - 0.4
22/06:30am -2.2 -4.6 -3.2 93 0.2 CALM 0 0 0 0 - - 0.4
22/06:00am -2.1 -4.5 -3.1 93 0.2 CALM 0 0 0 0 - - 0.4
22/05:30am -2.0 -4.4 -3.0 93 0.2 CALM 0 0 0 0 - - 0.4
22/05:00am -1.6 -3.9 -2.6 93 0.3 CALM 0 0 0 0 - - 0.4
22/04:30am -1.6 -3.9 -2.6 93 0.3 CALM 0 0 0 0 - - 0.4
22/04:00am -1.4 -3.7 -2.4 93 0.3 CALM 0 0 0 0 - - 0.4
22/03:30am -1.2 -3.5 -2.2 93 0.3 CALM 0 0 0 0 - - 0.4
22/03:00am -1.0 -3.3 -2.0 93 0.3 CALM 0 0 0 0 - - 0.4
22/02:30am -1.0 -3.3 -2.0 93 0.3 CALM 0 0 0 0 - - 0.4
22/02:00am -1.2 -4.6 -2.3 92 0.3 N 6 9 3 5 - - 0.4
22/01:30am -1.2 -3.5 -2.3 92 0.3 CALM 0 0 0 0 - - 0.4
22/01:00am -0.8 -3.0 -1.9 92 0.3 CALM 0 0 0 0 - - 0.4
22/12:30am -0.9 -3.2 -2.0 92 0.3 CALM 0 0 0 0 - - 0.4
22/12:00am -0.9 -3.9 -2.0 92 0.3 SE 4 6 2 3 - - 0.4
 
Date/Time
EST
Temp
°C
App
Temp
°C
Dew
Point
Rel
Hum
%
Delta-T
°C
Wind Press
QNH
hPa
Press
MSL
hPa
Rain
since 9 am
mm
Dir
 
Spd
km/h
Gust
km/h
Spd
kts
Gust
kts
21/11:30pm -0.7 -4.3 -2.0 91 0.4 SE 7 7 4 4 - - 0.4
21/11:00pm -0.5 -3.1 -1.8 91 0.4 NNE 2 6 1 3 - - 0.4
21/10:30pm -0.4 -2.6 -1.8 90 0.5 CALM 0 0 0 0 - - 0.4
21/10:00pm 0.0 -2.2 -1.4 90 0.5 CALM 0 0 0 0 - - 0.4
21/09:30pm 0.8 -2.0 -0.5 91 0.5 SSE 4 9 2 5 - - 0.4
21/09:00pm 0.9 -1.2 -0.7 89 0.6 CALM 0 0 0 0 - - 0.4
21/08:30pm 1.6 -0.4 0.0 89 0.6 CALM 0 0 0 0 - - 0.4
21/08:00pm 2.4 0.2 0.8 89 0.6 S 2 6 1 3 - - 0.4
21/07:30pm 2.7 -0.3 0.9 88 0.7 S 6 7 3 4 - - 0.4
21/07:00pm 3.5 0.6 1.5 87 0.8 SSW 6 7 3 4 - - 0.4
21/06:30pm 3.5 0.6 1.4 86 0.8 S 6 7 3 4 - - 0.4
21/06:00pm 4.5 1.5 1.9 83 1.0 SW 7 11 4 6 - - 0.4
21/05:30pm 5.7 2.9 2.9 82 1.2 SW 7 9 4 5 - - 0.4
21/05:00pm 6.5 5.0 2.8 77 1.6 CALM 0 0 0 0 - - 0.4
21/04:30pm 8.9 7.5 3.7 70 2.3 CALM 0 0 0 0 - - 0.4
21/04:00pm 10.1 8.7 3.4 63 3.0 CALM 0 0 0 0 - - 0.4
21/03:30pm 10.8 9.4 3.4 60 3.3 CALM 0 0 0 0 - - 0.4
21/03:00pm 10.6 8.0 3.4 61 3.2 N 6 7 3 4 - - 0.4
21/02:30pm 11.0 8.4 3.3 59 3.4 N 6 7 3 4 - - 0.4
21/02:00pm 10.9 8.9 4.4 64 3.0 NNW 4 6 2 3 - - 0.4
21/01:30pm 9.7 8.6 5.1 73 2.1 CALM 0 0 0 0 - - 0.4
21/01:00pm 7.5 5.4 4.1 79 1.5 NNE 4 7 2 4 - - 0.4
21/12:30pm 5.1 2.5 3.1 87 0.8 N 6 9 3 5 - - 0.4
21/12:00pm 3.2 0.2 2.0 92 0.5 NNE 7 9 4 5 - - 0.4
21/11:30am 2.0 -1.0 1.0 93 0.4 N 6 7 3 4 - - 0.4
21/11:00am 1.3 -0.6 0.3 93 0.4 CALM 0 0 0 0 - - 0.4
21/10:30am 0.2 -3.0 -0.8 93 0.4 N 6 7 3 4 - - 0.2
21/10:00am -0.9 -3.1 -1.9 93 0.3 CALM 0 0 0 0 - - 0.2
21/09:30am -1.6 -3.9 -2.6 93 0.3 CALM 0 0 0 0 - - 0.0
21/09:00am -2.0 -4.4 -3.0 93 0.2 CALM 0 0 0 0 - - 0.0
21/08:30am -2.5 -5.3 -3.5 93 0.2 WSW 2 6 1 3 - - 0.0
21/08:00am -2.6 -6.2 -3.6 93 0.2 W 6 9 3 5 - - 0.0
21/07:30am -2.8 -5.7 -3.9 92 0.2 SW 2 6 1 3 - - 0.0
21/07:00am -3.0 -5.5 -4.1 92 0.2 CALM 0 0 0 0 - - 0.0
21/06:30am -2.9 -6.5 -4.0 92 0.2 ESE 6 9 3 5 - - 0.0
21/06:00am -2.8 -5.3 -3.9 92 0.2 CALM 0 7 0 4 - - 0.0
21/05:30am -2.8 -5.3 -3.9 92 0.2 CALM 0 0 0 0 - - 0.0
21/05:00am -2.5 -5.0 -3.6 92 0.3 CALM 0 0 0 0 - - 0.0
21/04:30am -2.4 -4.8 -3.5 92 0.3 CALM 0 4 0 2 - - 0.0
21/04:00am -2.4 -5.6 -3.5 92 0.3 NNE 4 7 2 4 - - 0.0
21/03:30am -2.5 -5.0 -3.6 92 0.3 CALM 0 0 0 0 - - 0.0
21/03:00am -2.6 -5.1 -3.7 92 0.2 CALM 0 0 0 0 - - 0.0
21/02:30am -2.1 -4.5 -3.2 92 0.3 CALM 0 0 0 0 - - 0.0
21/02:00am -2.1 -4.5 -3.2 92 0.3 CALM 0 0 0 0 - - 0.0
21/01:30am -2.0 -4.4 -3.1 92 0.3 CALM 0 0 0 0 - - 0.0
21/01:00am -1.9 -4.7 -3.2 91 0.3 ENE 2 6 1 3 - - 0.0
21/12:30am -2.2 -4.6 -3.5 91 0.3 CALM 0 0 0 0 - - 0.0
21/12:00am -2.1 -4.5 -3.4 91 0.3 CALM 0 0 0 0 - - 0.0
 
Date/Time
EST
Temp
°C
App
Temp
°C
Dew
Point
Rel
Hum
%
Delta-T
°C
Wind Press
QNH
hPa
Press
MSL
hPa
Rain
since 9 am
mm
Dir
 
Spd
km/h
Gust
km/h
Spd
kts
Gust
kts
20/11:30pm -1.4 -3.7 -2.7 91 0.4 CALM 0 0 0 0 - - 0.0
20/11:00pm -1.3 -3.6 -2.7 90 0.4 CALM 0 0 0 0 - - 0.0
20/10:30pm -1.0 -3.3 -2.4 90 0.4 CALM 0 0 0 0 - - 0.0
20/10:00pm -0.6 -2.9 -2.0 90 0.5 CALM 0 0 0 0 - - 0.0

Other Formats:

Comma delimited format used in spreadsheet applications
http://www.bom.gov.au/fwo/IDT60801/IDT60801.95974.axf

JavaScript Object Notation format (JSON) in row-major order
http://www.bom.gov.au/fwo/IDT60801/IDT60801.95974.json